createdAt,value
2023-04-15T00:00:46.751Z,5.4
2023-04-15T00:06:24.796Z,5.5
2023-04-15T00:12:15.313Z,5.5
2023-04-15T00:17:52.448Z,5.6
2023-04-15T00:23:44.248Z,5.6
2023-04-15T00:29:35.197Z,5.7
2023-04-15T00:35:27.350Z,5.7
2023-04-15T00:41:18.758Z,5.7
2023-04-15T00:46:54.912Z,5.6
2023-04-15T00:52:47.818Z,5.6
2023-04-15T00:58:38.805Z,5.5
2023-04-15T01:04:31.615Z,5.3
2023-04-15T01:10:08.565Z,5.1
2023-04-15T01:15:59.884Z,5.1
2023-04-15T01:21:51.817Z,5.1
2023-04-15T01:27:43.604Z,5
2023-04-15T01:33:35.843Z,4.9
2023-04-15T01:39:26.476Z,4.7
2023-04-15T01:45:18.859Z,4.6
2023-04-15T01:51:10.492Z,4.4
2023-04-15T01:57:01.349Z,4.4
2023-04-15T02:02:38.849Z,4.2
2023-04-15T02:08:15.238Z,4.1
2023-04-15T02:14:06.251Z,4.1
2023-04-15T02:19:58.558Z,4.1
2023-04-15T02:25:20.640Z,3.9
2023-04-15T02:31:12.910Z,3.7
2023-04-15T02:37:05.226Z,3.6
2023-04-15T02:42:56.663Z,3.4
2023-04-15T02:48:48.614Z,3.2
2023-04-15T02:54:40.472Z,2.9
2023-04-15T03:00:31.808Z,2.7
2023-04-15T03:06:24.658Z,2.5
2023-04-15T03:12:16.356Z,2.3
2023-04-15T03:18:07.711Z,2.1
2023-04-15T03:23:58.702Z,2
2023-04-15T03:29:51.110Z,1.9
2023-04-15T03:35:26.908Z,1.8
2023-04-15T03:41:03.564Z,1.6
2023-04-15T03:46:57.433Z,1.6
2023-04-15T03:53:02.742Z,1.4
2023-04-15T03:58:53.232Z,1.4
2023-04-15T04:04:46.993Z,1.4
2023-04-15T04:10:38.281Z,1.4
2023-04-15T04:16:29.490Z,1.4
2023-04-15T04:22:06.055Z,1.5
2023-04-15T04:27:41.887Z,1.6
2023-04-15T04:33:33.884Z,1.8
2023-04-15T04:39:26.050Z,2
2023-04-15T04:45:17.599Z,2.2
2023-04-15T04:51:09.121Z,2.6
2023-04-15T04:57:00.916Z,3.5
2023-04-15T05:02:53.167Z,4.7
2023-04-15T05:08:29.445Z,6.1
2023-04-15T05:14:23.380Z,7.8
2023-04-15T05:20:15.963Z,9.9
2023-04-15T05:26:08.613Z,12.3
2023-04-15T05:32:01.780Z,14.6
2023-04-15T05:37:53.372Z,17.3
2023-04-15T05:43:45.168Z,19.8
2023-04-15T05:49:37.997Z,22.6
2023-04-15T05:55:31.942Z,25.7
2023-04-15T06:01:23.212Z,28.6
2023-04-15T06:06:45.707Z,31.7
2023-04-15T06:12:21.832Z,34.9
2023-04-15T06:17:58.614Z,38.2
2023-04-15T06:23:50.989Z,41.7
2023-04-15T06:29:12.075Z,35
2023-04-15T06:35:04.296Z,33.6
2023-04-15T06:40:42.167Z,35.4
2023-04-15T06:46:18.956Z,36.6
2023-04-15T06:52:10.444Z,37.6
2023-04-15T06:58:02.165Z,39.2
2023-04-15T07:03:37.943Z,40.6
2023-04-15T07:09:28.551Z,40.4
2023-04-15T07:15:20.379Z,40.5
2023-04-15T07:21:14.161Z,39.7
2023-04-15T07:27:05.644Z,40.9
2023-04-15T07:32:58.950Z,41.9
2023-04-15T07:38:49.146Z,41.6
2023-04-15T07:44:42.322Z,42.4
2023-04-15T07:50:36.801Z,38.9
2023-04-15T07:56:27.955Z,37.5
2023-04-15T08:02:19.279Z,47.3
2023-04-15T08:07:59.894Z,51.2
2023-04-15T08:13:35.756Z,51.4
2023-04-15T08:19:26.871Z,50.8
2023-04-15T08:25:25.584Z,50.6
2023-04-15T08:31:17.613Z,51.3
2023-04-15T08:48:22.465Z,53.6
2023-04-15T08:53:59.578Z,53.5
2023-04-15T08:59:51.219Z,53.9
2023-04-15T09:05:43.400Z,54
2023-04-15T09:11:37.401Z,52.3
2023-04-15T09:17:29.523Z,52.8
2023-04-15T09:23:19.801Z,54.1
2023-04-15T09:29:13.667Z,54.4
2023-04-15T09:35:06.310Z,51.4
2023-04-15T09:41:11.759Z,50.3
2023-04-15T09:46:48.514Z,50.1
2023-04-15T09:52:38.397Z,49.1
2023-04-15T09:58:17.619Z,47.6
2023-04-15T10:04:10.625Z,44.3
2023-04-15T10:09:47.152Z,45.6
2023-04-15T10:15:22.670Z,49.2
2023-04-15T10:20:43.314Z,50.3
2023-04-15T10:26:06.396Z,45.6
2023-04-15T10:31:57.792Z,47.1
2023-04-15T10:37:48.602Z,55.3
2023-04-15T10:43:24.797Z,54.5
2023-04-15T10:49:01.167Z,53.1
2023-04-15T10:54:51.798Z,54.3
2023-04-15T11:00:43.049Z,53.9
2023-04-15T11:06:21.075Z,54.2
2023-04-15T11:12:12.569Z,53.3
2023-04-15T11:18:04.915Z,54.8
2023-04-15T11:24:10.265Z,54.7
2023-04-15T11:30:02.082Z,53.1
2023-04-15T11:35:38.707Z,54.4
2023-04-15T11:41:30.031Z,54.4
2023-04-15T11:47:34.508Z,54.1
2023-04-15T11:52:40.378Z,53.9
2023-04-15T11:58:00.704Z,53.9
2023-04-15T12:03:44.247Z,54
2023-04-15T12:09:22.998Z,54.2
2023-04-15T12:15:13.937Z,54.1
2023-04-15T12:21:32.432Z,49.5
2023-04-15T12:27:23.415Z,50.3
2023-04-15T12:33:01.716Z,50.4
2023-04-15T12:38:37.996Z,50.4
2023-04-15T12:44:15.443Z,50.5
2023-04-15T12:50:06.673Z,51.1
2023-04-15T12:55:58.019Z,53.4
2023-04-15T13:01:20.309Z,57.4
2023-04-15T13:07:14.020Z,54.7
2023-04-15T13:13:11.274Z,47.1
2023-04-15T13:19:02.671Z,47.6
2023-04-15T13:24:53.729Z,50.3
2023-04-15T13:30:46.564Z,51.8
2023-04-15T13:36:38.345Z,52.8
2023-04-15T13:42:31.382Z,52.9
2023-04-15T13:48:22.950Z,53.1
2023-04-15T13:54:14.497Z,50.8
2023-04-15T14:00:37.671Z,50.6
2023-04-15T14:06:14.995Z,50.4
2023-04-15T14:12:09.770Z,49.6
2023-04-15T14:18:02.317Z,48.4
2023-04-15T14:23:57.176Z,47.4
2023-04-15T14:30:02.263Z,46.1
2023-04-15T14:35:53.984Z,45.1
2023-04-15T14:41:45.309Z,43.8
2023-04-15T14:47:37.037Z,42.6
2023-04-15T14:53:28.511Z,41.1
2023-04-15T14:59:20.476Z,38.3
2023-04-15T15:05:30.527Z,35.8
2023-04-15T15:11:43.857Z,34.4
2023-04-15T15:17:47.728Z,33.8
2023-04-15T15:23:39.371Z,33.2
2023-04-15T15:29:30.886Z,32.1
2023-04-15T15:35:23.075Z,31.1
2023-04-15T15:41:15.537Z,30.2
2023-04-15T15:46:52.816Z,28.9
2023-04-15T15:58:06.351Z,26.9
2023-04-15T16:04:37.017Z,26
2023-04-15T16:10:32.198Z,25.1
2023-04-15T16:16:24.089Z,24.3
2023-04-15T16:22:33.039Z,23.5
2023-04-15T16:28:44.570Z,22.9
2023-04-15T16:34:35.901Z,22.1
2023-04-15T16:40:26.594Z,21.4
2023-04-15T16:46:19.843Z,20.8
2023-04-15T16:52:12.099Z,20.2
2023-04-15T16:58:35.285Z,19.6
2023-04-15T17:04:30.042Z,18.9
2023-04-15T17:10:21.226Z,18.4
2023-04-15T17:16:13.297Z,17.9
2023-04-15T17:22:04.833Z,17.4
2023-04-15T17:27:25.201Z,17.1
2023-04-15T17:33:26.297Z,16.7
2023-04-15T17:40:09.825Z,16.4
2023-04-15T17:46:01.140Z,16.1
2023-04-15T17:51:53.853Z,15.8
2023-04-15T17:57:46.471Z,15.6
2023-04-15T18:03:39.738Z,15.3
2023-04-15T18:09:32.334Z,15.1
2023-04-15T18:15:41.928Z,14.8
2023-04-15T18:21:33.975Z,14.6
2023-04-15T18:27:26.007Z,14.4
2023-04-15T18:33:18.691Z,14.3
2023-04-15T18:38:57.607Z,14.1
2023-04-15T18:44:34.590Z,13.9
2023-04-15T18:50:27.153Z,13.8
2023-04-15T18:56:19.150Z,13.7
2023-04-15T19:03:08.074Z,13.6
2023-04-15T19:09:00.651Z,13.4
2023-04-15T19:14:52.080Z,13.3
2023-04-15T19:20:44.579Z,13.1
2023-04-15T19:26:36.854Z,12.9
2023-04-15T19:32:30.870Z,12.8
2023-04-15T19:38:07.106Z,12.6
2023-04-15T19:43:43.430Z,12.5
2023-04-15T19:49:19.716Z,12.4
2023-04-15T19:54:55.932Z,12.2
2023-04-15T20:00:47.093Z,11.9
2023-04-15T20:06:40.424Z,11.8
2023-04-15T20:13:25.369Z,11.6
2023-04-15T20:19:17.594Z,11.4
2023-04-15T20:25:08.613Z,11.2
2023-04-15T20:30:59.617Z,11.1
2023-04-15T20:36:51.404Z,11
2023-04-15T20:42:43.334Z,10.9
2023-04-15T20:48:46.843Z,10.8
2023-04-15T20:54:38.586Z,10.7
2023-04-15T21:00:32.505Z,10.6
2023-04-15T21:06:25.778Z,10.4
2023-04-15T21:12:38.040Z,10.4
2023-04-15T21:18:29.399Z,10.4
2023-04-15T21:24:07.970Z,10.3
2023-04-15T21:29:59.326Z,10.3
2023-04-15T21:35:50.301Z,10.3
2023-04-15T21:41:26.543Z,10.3
2023-04-15T21:47:56.952Z,10.3
2023-04-15T21:53:58.078Z,10.3
2023-04-15T21:59:48.989Z,10.2
2023-04-15T22:05:45.390Z,10.2
2023-04-15T22:11:48.713Z,10.2
2023-04-15T22:17:40.181Z,10.1
2023-04-15T22:23:39.507Z,10.1
2023-04-15T22:30:14.112Z,9.9
2023-04-15T22:36:05.649Z,9.9
2023-04-15T22:41:58.132Z,9.8
2023-04-15T22:47:34.901Z,9.7
2023-04-15T22:53:41.924Z,9.5
2023-04-15T22:59:18.710Z,9.4
2023-04-15T23:05:45.541Z,9.3
2023-04-15T23:11:21.410Z,9.1
2023-04-15T23:17:13.246Z,8.9
2023-04-15T23:23:04.590Z,8.7
2023-04-15T23:28:55.677Z,8.4
2023-04-15T23:34:48.248Z,8.3
2023-04-15T23:40:40.139Z,8.1
2023-04-15T23:46:15.454Z,8
2023-04-15T23:52:10.366Z,7.8
2023-04-15T23:58:02.030Z,7.7
